Northern Ocean — V7WG5 — position and weather

sailwx.info

Track history (hours):
 
Tides and Currents Weather Stations Pressure Air Temp Water Temp Dewpoint Dewpoint Depression Visibility Wind Speed Wind Dir Waves Ship Positions

Northern Ocean

Last reported at 2018-Feb-25 20:00 UTC. Time now 2018-Feb-25 20:10 UTC.
Position N 51°26' E 000°41'.

Length 183 m; draft 11.6 m.

Type: Tanker. MMSI: 538004294.

Date/timePositionNaut miles runAvg speedWind from/ knotsBaromVisibWave heightAir tempDewpointWater temp
2018-Feb-25 20:00N 51°26' E 000°41'0 0.0
2018-Feb-25 19:30N 51°26' E 000°41'0 0.0
2018-Feb-25 18:57N 51°26' E 000°41'0 0.0
2018-Feb-25 18:30N 51°26' E 000°41'0 0.0
2018-Feb-25 18:00N 51°26' E 000°41'0 0.0
2018-Feb-25 17:30N 51°26' E 000°41'0 0.0
2018-Feb-25 17:00N 51°26' E 000°41'0 0.0
2018-Feb-25 16:30N 51°26' E 000°41'0 0.0
2018-Feb-25 16:00N 51°26' E 000°41'0 0.0
2018-Feb-25 15:27N 51°26' E 000°41'0 0.0
2018-Feb-25 15:00N 51°26' E 000°41'0 0.0
2018-Feb-25 14:30N 51°26' E 000°41'0 0.0
2018-Feb-25 14:00N 51°26' E 000°41'0 0.0
2018-Feb-25 13:30N 51°26' E 000°41'0 0.0
2018-Feb-25 13:00N 51°26' E 000°41'0 0.0
2018-Feb-25 12:30N 51°26' E 000°41'0 0.0
2018-Feb-25 12:00N 51°26' E 000°41'0 0.0
2018-Feb-25 11:30N 51°26' E 000°41'0 0.0
2018-Feb-25 11:00N 51°26' E 000°41'0 0.0
2018-Feb-25 10:24N 51°26' E 000°41'0 0.0
2018-Feb-25 10:00N 51°26' E 000°41'0 0.0
2018-Feb-25 09:30N 51°26' E 000°41'0 0.0
2018-Feb-25 09:00N 51°26' E 000°41'0 0.0
2018-Feb-25 08:30N 51°26' E 000°41'0 0.0
2018-Feb-25 08:00N 51°26' E 000°41'0 0.0
2018-Feb-25 07:30N 51°26' E 000°41'0 0.0
2018-Feb-25 07:00N 51°26' E 000°41'0 0.0
2018-Feb-25 06:30N 51°26' E 000°41'0 0.0
2018-Feb-25 06:00N 51°26' E 000°41'0 0.0
2018-Feb-25 05:30N 51°26' E 000°41'0 0.0
2018-Feb-25 04:57N 51°26' E 000°41'0 0.0
2018-Feb-25 04:30N 51°26' E 000°41'0 0.0
2018-Feb-25 04:00N 51°26' E 000°41'0 0.0
2018-Feb-25 03:30N 51°26' E 000°41'0 0.0
2018-Feb-25 03:00N 51°26' E 000°41'0 0.0
2018-Feb-25 02:30N 51°26' E 000°41'0 0.0
2018-Feb-25 02:00N 51°26' E 000°41'0 0.0
2018-Feb-25 01:30N 51°26' E 000°41'0 0.0
2018-Feb-25 01:00N 51°26' E 000°41'0 0.0
2018-Feb-25 00:30N 51°26' E 000°41'0 0.0
2018-Feb-25 00:00N 51°26' E 000°41'0 0.0
2018-Feb-24 23:27N 51°26' E 000°41'0 0.0
2018-Feb-24 23:00N 51°26' E 000°41'0 0.0
2018-Feb-24 22:30N 51°26' E 000°41'0 0.0
2018-Feb-24 21:57N 51°26' E 000°41'0 0.0
2018-Feb-24 21:30N 51°26' E 000°41'0 0.0
2018-Feb-24 21:00N 51°26' E 000°41'0 0.0
2018-Feb-24 20:30N 51°26' E 000°41'1 2.2
2018-Feb-24 20:00N 51°26' E 000°42'3 6.5
2018-Feb-24 19:30N 51°28' E 000°47'510.9
2018-Feb-24 19:00N 51°29' E 000°55'611.5
2018-Feb-24 18:30N 51°31' E 001°04'611.7
2018-Feb-24 18:00N 51°34' E 001°12'511.1
2018-Feb-24 17:31N 51°36' E 001°20'4 8.1
2018-Feb-24 17:00N 51°34' E 001°25'3 6.3
2018-Feb-24 16:30N 51°32' E 001°28'4 7.2
2018-Feb-24 16:00N 51°30' E 001°33'3 5.0
2018-Feb-24 15:30N 51°29' E 001°37'3 6.5
2018-Feb-24 15:01N 51°30' E 001°42'3 6.4
2018-Feb-24 14:30N 51°30' E 001°47'0 0.8
2018-Feb-24 14:00N 51°31' E 001°48'4 7.6
2018-Feb-24 13:30N 51°29' E 001°53'4 8.6
2018-Feb-24 13:00N 51°27' E 001°59'4 7.5
2018-Feb-24 12:30N 51°23' E 002°02'4 8.7
2018-Feb-24 12:00N 51°20' E 001°58'5 9.5
2018-Feb-24 11:30N 51°16' E 001°53'510.7
2018-Feb-24 11:00N 51°12' E 001°48'611.7
2018-Feb-24 10:30N 51°08' E 001°42'611.9
2018-Feb-24 10:00N 51°03' E 001°36'612.4
2018-Feb-24 09:30N 50°58' E 001°30'1812.6
2018-Feb-24 08:05N 50°42' E 001°19'312.6
2018-Feb-24 07:52N 50°40' E 001°16'412.6
2018-Feb-24 07:30N 50°37' E 001°11'912.7
2018-Feb-24 06:47N 50°30' E 001°00'412.2
2018-Feb-24 06:27N 50°29' E 000°55'512.1
2018-Feb-24 06:00N 50°27' E 000°47'712.2
2018-Feb-24 05:25N 50°25' E 000°36'712.3
2018-Feb-24 04:52N 50°23' E 000°26'512.5
2018-Feb-24 04:30N 50°22' E 000°19'612.8
2018-Feb-24 04:00N 50°20' E 000°09'713.1
2018-Feb-24 03:30N 50°18' W 000°01'913.6
2018-Feb-24 02:49N 50°16' W 000°15'3414.3
2018-Feb-24 00:28N 50°07' W 001°06'614.1
2018-Feb-24 00:00N 50°06' W 001°16'713.8
2018-Feb-23 23:30N 50°04' W 001°26'713.3
2018-Feb-23 23:00N 50°02' W 001°36'612.9
2018-Feb-23 22:30N 50°01' W 001°46'612.3
2018-Feb-23 22:00N 49°59' W 001°55'2110.9
2018-Feb-23 20:07N 49°54' W 002°26'210.1
2018-Feb-23 19:58N 49°54' W 002°28'510.0
2018-Feb-23 19:28N 49°53' W 002°36'510.0
2018-Feb-23 18:58N 49°51' W 002°43'510.0
2018-Feb-23 18:30N 49°50' W 002°50'1110.3
2018-Feb-23 17:26N 49°45' W 003°05'510.6
2018-Feb-23 16:59N 49°42' W 003°12'8512.1
2018-Feb-23 09:57N 49°01' W 005°06'2513.3
2018-Feb-23 08:05N 48°48' W 005°38'113.6
2018-Feb-23 07:59N 48°47' W 005°39'813.7
2018-Feb-23 07:22N 48°40' W 005°46'1113.7
2018-Feb-23 06:34N 48°30' W 005°54'1713.6
2018-Feb-23 05:21N 48°16' W 006°06'1113.3
2018-Feb-23 04:30N 48°06' W 006°14'713.1
2018-Feb-23 03:57N 47°59' W 006°19'712.8
2018-Feb-23 03:25N 47°53' W 006°23'812.6
2018-Feb-23 02:46N 47°46' W 006°29'612.4
2018-Feb-23 02:15N 47°41' W 006°34'50911.9
2018-Feb-21 07:28N 39°33' W 009°59'612.1
2018-Feb-21 07:00N 39°28' W 009°59'612.3
2018-Feb-21 06:30N 39°22' W 009°59'612.4
2018-Feb-21 06:00N 39°15' W 009°59'612.5
2018-Feb-21 05:30N 39°09' W 009°58'612.4
2018-Feb-21 05:00N 39°03' W 009°58'612.4
2018-Feb-21 04:30N 38°57' W 009°58'612.5
2018-Feb-21 04:00N 38°51' W 009°59'612.6
2018-Feb-21 03:30N 38°44' W 009°59'612.5
2018-Feb-21 02:59N 38°38' W 009°57'612.5
2018-Feb-21 02:30N 38°32' W 009°55'612.3
2018-Feb-21 02:00N 38°26' W 009°54'612.0
2018-Feb-21 01:30N 38°20' W 009°52'612.0
2018-Feb-21 01:00N 38°14' W 009°51'611.9
2018-Feb-21 00:30N 38°09' W 009°49'612.1
2018-Feb-21 00:00N 38°03' W 009°47'612.1
2018-Feb-20 23:30N 37°57' W 009°45'612.1
2018-Feb-20 23:00N 37°51' W 009°43'612.0
2018-Feb-20 22:30N 37°45' W 009°40'611.8
2018-Feb-20 22:00N 37°40' W 009°39'612.2
2018-Feb-20 21:30N 37°34' W 009°37'612.2
2018-Feb-20 20:59N 37°27' W 009°35'612.3
2018-Feb-20 20:29N 37°21' W 009°34'612.4
2018-Feb-20 20:00N 37°16' W 009°32'612.3
2018-Feb-20 19:28N 37°09' W 009°30'612.3
2018-Feb-20 18:59N 37°03' W 009°28'612.2
2018-Feb-20 18:30N 36°58' W 009°27'612.0
2018-Feb-20 18:00N 36°52' W 009°25'611.9
2018-Feb-20 17:28N 36°47' W 009°20'1012.0
2018-Feb-20 16:38N 36°40' W 009°11'412.2
2018-Feb-20 16:18N 36°40' W 009°06'411.9
2018-Feb-20 16:00N 36°38' W 009°01'612.1
2018-Feb-20 15:30N 36°37' W 008°54'16212.5
2018-Feb-20 02:32N 35°58' W 005°39'012.7
2018-Feb-20 02:30N 35°58' W 005°38'612.0
2018-Feb-20 02:00N 35°59' W 005°31'611.3
2018-Feb-20 01:29N 36°01' W 005°24'511.1
2018-Feb-20 01:00N 36°02' W 005°18'  
2018-Feb-16 20:49N 36°25' E 013°38'413.8
2018-Feb-16 20:30N 36°23' E 013°43'713.5
2018-Feb-16 19:59N 36°19' E 013°50'613.1
2018-Feb-16 19:30N 36°16' E 013°57'713.1
2018-Feb-16 19:00N 36°13' E 014°05'612.8
2018-Feb-16 18:30N 36°10' E 014°12'612.4
2018-Feb-16 18:00N 36°07' E 014°18'612.4
2018-Feb-16 17:29N 36°04' E 014°25'612.2
2018-Feb-16 17:00N 36°02' E 014°32'612.1
2018-Feb-16 16:29N 35°60' E 014°39'611.6
2018-Feb-16 16:00N 35°56' E 014°45'4 8.2
2018-Feb-16 15:30N 35°53' E 014°47'0 0.5
2018-Feb-16 15:00N 35°53' E 014°47'0 0.0
2018-Feb-16 14:28N 35°53' E 014°47'0 0.0
2018-Feb-16 14:00N 35°53' E 014°47'0 0.1
2018-Feb-16 13:30N 35°53' E 014°47'0 0.0
2018-Feb-16 13:00N 35°53' E 014°47'0 0.0
2018-Feb-16 12:29N 35°53' E 014°47'0 0.0
2018-Feb-16 12:00N 35°53' E 014°47'0 0.0
2018-Feb-16 11:30N 35°53' E 014°47'0 0.0
2018-Feb-16 11:00N 35°53' E 014°47'0 0.0
2018-Feb-16 10:29N 35°53' E 014°47'0 0.0
2018-Feb-16 10:00N 35°53' E 014°47'0 0.0
2018-Feb-16 09:29N 35°53' E 014°47'0 0.0
2018-Feb-16 09:00N 35°53' E 014°47'0 0.0
2018-Feb-16 08:30N 35°53' E 014°47'0 0.0
2018-Feb-16 08:00N 35°53' E 014°47'0 0.0
2018-Feb-16 07:29N 35°53' E 014°47'0 0.0
2018-Feb-16 07:00N 35°53' E 014°47'0 0.0
2018-Feb-16 06:29N 35°53' E 014°47'0 0.0
2018-Feb-16 05:57N 35°53' E 014°47'0 0.1
2018-Feb-16 05:29N 35°53' E 014°47'0 0.2
2018-Feb-16 04:59N 35°53' E 014°47'  
Track history (hours):
 
Tides and Currents Weather Stations Pressure Air Temp Water Temp Dewpoint Dewpoint Depression Visibility Wind Speed Wind Dir Waves Ship Positions

Northern Ocean

Last reported at 2018-Feb-25 20:00 UTC. Time now 2018-Feb-25 20:10 UTC.
Position N 51°26' E 000°41'.

Length 183 m; draft 11.6 m.

Type: Tanker. MMSI: 538004294.

Date/timePositionNaut miles runAvg speedWind from/ knotsBaromVisibWave heightAir tempDewpointWater temp
2018-Feb-25 20:00N 51°26' E 000°41'0 0.0
2018-Feb-25 19:30N 51°26' E 000°41'0 0.0
2018-Feb-25 18:57N 51°26' E 000°41'0 0.0
2018-Feb-25 18:30N 51°26' E 000°41'0 0.0
2018-Feb-25 18:00N 51°26' E 000°41'0 0.0
2018-Feb-25 17:30N 51°26' E 000°41'0 0.0
2018-Feb-25 17:00N 51°26' E 000°41'0 0.0
2018-Feb-25 16:30N 51°26' E 000°41'0 0.0
2018-Feb-25 16:00N 51°26' E 000°41'0 0.0
2018-Feb-25 15:27N 51°26' E 000°41'0 0.0
2018-Feb-25 15:00N 51°26' E 000°41'0 0.0
2018-Feb-25 14:30N 51°26' E 000°41'0 0.0
2018-Feb-25 14:00N 51°26' E 000°41'0 0.0
2018-Feb-25 13:30N 51°26' E 000°41'0 0.0
2018-Feb-25 13:00N 51°26' E 000°41'0 0.0
2018-Feb-25 12:30N 51°26' E 000°41'0 0.0
2018-Feb-25 12:00N 51°26' E 000°41'0 0.0
2018-Feb-25 11:30N 51°26' E 000°41'0 0.0
2018-Feb-25 11:00N 51°26' E 000°41'0 0.0
2018-Feb-25 10:24N 51°26' E 000°41'0 0.0
2018-Feb-25 10:00N 51°26' E 000°41'0 0.0
2018-Feb-25 09:30N 51°26' E 000°41'0 0.0
2018-Feb-25 09:00N 51°26' E 000°41'0 0.0
2018-Feb-25 08:30N 51°26' E 000°41'0 0.0
2018-Feb-25 08:00N 51°26' E 000°41'0 0.0
2018-Feb-25 07:30N 51°26' E 000°41'0 0.0
2018-Feb-25 07:00N 51°26' E 000°41'0 0.0
2018-Feb-25 06:30N 51°26' E 000°41'0 0.0
2018-Feb-25 06:00N 51°26' E 000°41'0 0.0
2018-Feb-25 05:30N 51°26' E 000°41'0 0.0
2018-Feb-25 04:57N 51°26' E 000°41'0 0.0
2018-Feb-25 04:30N 51°26' E 000°41'0 0.0
2018-Feb-25 04:00N 51°26' E 000°41'0 0.0
2018-Feb-25 03:30N 51°26' E 000°41'0 0.0
2018-Feb-25 03:00N 51°26' E 000°41'0 0.0
2018-Feb-25 02:30N 51°26' E 000°41'0 0.0
2018-Feb-25 02:00N 51°26' E 000°41'0 0.0
2018-Feb-25 01:30N 51°26' E 000°41'0 0.0
2018-Feb-25 01:00N 51°26' E 000°41'0 0.0
2018-Feb-25 00:30N 51°26' E 000°41'0 0.0
2018-Feb-25 00:00N 51°26' E 000°41'0 0.0
2018-Feb-24 23:27N 51°26' E 000°41'0 0.0
2018-Feb-24 23:00N 51°26' E 000°41'0 0.0
2018-Feb-24 22:30N 51°26' E 000°41'0 0.0
2018-Feb-24 21:57N 51°26' E 000°41'0 0.0
2018-Feb-24 21:30N 51°26' E 000°41'0 0.0
2018-Feb-24 21:00N 51°26' E 000°41'0 0.0
2018-Feb-24 20:30N 51°26' E 000°41'1 2.2
2018-Feb-24 20:00N 51°26' E 000°42'3 6.5
2018-Feb-24 19:30N 51°28' E 000°47'510.9
2018-Feb-24 19:00N 51°29' E 000°55'611.5
2018-Feb-24 18:30N 51°31' E 001°04'611.7
2018-Feb-24 18:00N 51°34' E 001°12'511.1
2018-Feb-24 17:31N 51°36' E 001°20'4 8.1
2018-Feb-24 17:00N 51°34' E 001°25'3 6.3
2018-Feb-24 16:30N 51°32' E 001°28'4 7.2
2018-Feb-24 16:00N 51°30' E 001°33'3 5.0
2018-Feb-24 15:30N 51°29' E 001°37'3 6.5
2018-Feb-24 15:01N 51°30' E 001°42'3 6.4
2018-Feb-24 14:30N 51°30' E 001°47'0 0.8
2018-Feb-24 14:00N 51°31' E 001°48'4 7.6
2018-Feb-24 13:30N 51°29' E 001°53'4 8.6
2018-Feb-24 13:00N 51°27' E 001°59'4 7.5
2018-Feb-24 12:30N 51°23' E 002°02'4 8.7
2018-Feb-24 12:00N 51°20' E 001°58'5 9.5
2018-Feb-24 11:30N 51°16' E 001°53'510.7
2018-Feb-24 11:00N 51°12' E 001°48'611.7
2018-Feb-24 10:30N 51°08' E 001°42'611.9
2018-Feb-24 10:00N 51°03' E 001°36'612.4
2018-Feb-24 09:30N 50°58' E 001°30'1812.6
2018-Feb-24 08:05N 50°42' E 001°19'312.6
2018-Feb-24 07:52N 50°40' E 001°16'412.6
2018-Feb-24 07:30N 50°37' E 001°11'912.7
2018-Feb-24 06:47N 50°30' E 001°00'412.2
2018-Feb-24 06:27N 50°29' E 000°55'512.1
2018-Feb-24 06:00N 50°27' E 000°47'712.2
2018-Feb-24 05:25N 50°25' E 000°36'712.3
2018-Feb-24 04:52N 50°23' E 000°26'512.5
2018-Feb-24 04:30N 50°22' E 000°19'612.8
2018-Feb-24 04:00N 50°20' E 000°09'713.1
2018-Feb-24 03:30N 50°18' W 000°01'913.6
2018-Feb-24 02:49N 50°16' W 000°15'3414.3
2018-Feb-24 00:28N 50°07' W 001°06'614.1
2018-Feb-24 00:00N 50°06' W 001°16'713.8
2018-Feb-23 23:30N 50°04' W 001°26'713.3
2018-Feb-23 23:00N 50°02' W 001°36'612.9
2018-Feb-23 22:30N 50°01' W 001°46'612.3
2018-Feb-23 22:00N 49°59' W 001°55'2110.9
2018-Feb-23 20:07N 49°54' W 002°26'210.1
2018-Feb-23 19:58N 49°54' W 002°28'510.0
2018-Feb-23 19:28N 49°53' W 002°36'510.0
2018-Feb-23 18:58N 49°51' W 002°43'510.0
2018-Feb-23 18:30N 49°50' W 002°50'1110.3
2018-Feb-23 17:26N 49°45' W 003°05'510.6
2018-Feb-23 16:59N 49°42' W 003°12'8512.1
2018-Feb-23 09:57N 49°01' W 005°06'2513.3
2018-Feb-23 08:05N 48°48' W 005°38'113.6
2018-Feb-23 07:59N 48°47' W 005°39'813.7
2018-Feb-23 07:22N 48°40' W 005°46'1113.7
2018-Feb-23 06:34N 48°30' W 005°54'1713.6
2018-Feb-23 05:21N 48°16' W 006°06'1113.3
2018-Feb-23 04:30N 48°06' W 006°14'713.1
2018-Feb-23 03:57N 47°59' W 006°19'712.8
2018-Feb-23 03:25N 47°53' W 006°23'812.6
2018-Feb-23 02:46N 47°46' W 006°29'612.4
2018-Feb-23 02:15N 47°41' W 006°34'50911.9
2018-Feb-21 07:28N 39°33' W 009°59'612.1
2018-Feb-21 07:00N 39°28' W 009°59'612.3
2018-Feb-21 06:30N 39°22' W 009°59'612.4
2018-Feb-21 06:00N 39°15' W 009°59'612.5
2018-Feb-21 05:30N 39°09' W 009°58'612.4
2018-Feb-21 05:00N 39°03' W 009°58'612.4
2018-Feb-21 04:30N 38°57' W 009°58'612.5
2018-Feb-21 04:00N 38°51' W 009°59'612.6
2018-Feb-21 03:30N 38°44' W 009°59'612.5
2018-Feb-21 02:59N 38°38' W 009°57'612.5
2018-Feb-21 02:30N 38°32' W 009°55'612.3
2018-Feb-21 02:00N 38°26' W 009°54'612.0
2018-Feb-21 01:30N 38°20' W 009°52'612.0
2018-Feb-21 01:00N 38°14' W 009°51'611.9
2018-Feb-21 00:30N 38°09' W 009°49'612.1
2018-Feb-21 00:00N 38°03' W 009°47'612.1
2018-Feb-20 23:30N 37°57' W 009°45'612.1
2018-Feb-20 23:00N 37°51' W 009°43'612.0
2018-Feb-20 22:30N 37°45' W 009°40'611.8
2018-Feb-20 22:00N 37°40' W 009°39'612.2
2018-Feb-20 21:30N 37°34' W 009°37'612.2
2018-Feb-20 20:59N 37°27' W 009°35'612.3
2018-Feb-20 20:29N 37°21' W 009°34'612.4
2018-Feb-20 20:00N 37°16' W 009°32'612.3
2018-Feb-20 19:28N 37°09' W 009°30'612.3
2018-Feb-20 18:59N 37°03' W 009°28'612.2
2018-Feb-20 18:30N 36°58' W 009°27'612.0
2018-Feb-20 18:00N 36°52' W 009°25'611.9
2018-Feb-20 17:28N 36°47' W 009°20'1012.0
2018-Feb-20 16:38N 36°40' W 009°11'412.2
2018-Feb-20 16:18N 36°40' W 009°06'411.9
2018-Feb-20 16:00N 36°38' W 009°01'612.1
2018-Feb-20 15:30N 36°37' W 008°54'16212.5
2018-Feb-20 02:32N 35°58' W 005°39'012.7
2018-Feb-20 02:30N 35°58' W 005°38'612.0
2018-Feb-20 02:00N 35°59' W 005°31'611.3
2018-Feb-20 01:29N 36°01' W 005°24'511.1
2018-Feb-20 01:00N 36°02' W 005°18'  
2018-Feb-16 20:49N 36°25' E 013°38'413.8
2018-Feb-16 20:30N 36°23' E 013°43'713.5
2018-Feb-16 19:59N 36°19' E 013°50'613.1
2018-Feb-16 19:30N 36°16' E 013°57'713.1
2018-Feb-16 19:00N 36°13' E 014°05'612.8
2018-Feb-16 18:30N 36°10' E 014°12'612.4
2018-Feb-16 18:00N 36°07' E 014°18'612.4
2018-Feb-16 17:29N 36°04' E 014°25'612.2
2018-Feb-16 17:00N 36°02' E 014°32'612.1
2018-Feb-16 16:29N 35°60' E 014°39'611.6
2018-Feb-16 16:00N 35°56' E 014°45'4 8.2
2018-Feb-16 15:30N 35°53' E 014°47'0 0.5
2018-Feb-16 15:00N 35°53' E 014°47'0 0.0
2018-Feb-16 14:28N 35°53' E 014°47'0 0.0
2018-Feb-16 14:00N 35°53' E 014°47'0 0.1
2018-Feb-16 13:30N 35°53' E 014°47'0 0.0
2018-Feb-16 13:00N 35°53' E 014°47'0 0.0
2018-Feb-16 12:29N 35°53' E 014°47'0 0.0
2018-Feb-16 12:00N 35°53' E 014°47'0 0.0
2018-Feb-16 11:30N 35°53' E 014°47'0 0.0
2018-Feb-16 11:00N 35°53' E 014°47'0 0.0
2018-Feb-16 10:29N 35°53' E 014°47'0 0.0
2018-Feb-16 10:00N 35°53' E 014°47'0 0.0
2018-Feb-16 09:29N 35°53' E 014°47'0 0.0
2018-Feb-16 09:00N 35°53' E 014°47'0 0.0
2018-Feb-16 08:30N 35°53' E 014°47'0 0.0
2018-Feb-16 08:00N 35°53' E 014°47'0 0.0
2018-Feb-16 07:29N 35°53' E 014°47'0 0.0
2018-Feb-16 07:00N 35°53' E 014°47'0 0.0
2018-Feb-16 06:29N 35°53' E 014°47'0 0.0
2018-Feb-16 05:57N 35°53' E 014°47'0 0.1
2018-Feb-16 05:29N 35°53' E 014°47'0 0.2
2018-Feb-16 04:59N 35°53' E 014°47'  

Dump ship's entire track history